createdAt,value
2022-12-15T00:00:30.735Z,17.07
2022-12-15T00:04:09.827Z,16.73
2022-12-15T00:07:50.214Z,17.23
2022-12-15T00:11:29.163Z,17.07
2022-12-15T00:15:08.548Z,18.07
2022-12-15T00:18:47.500Z,19.07
2022-12-15T00:22:26.206Z,20.20
2022-12-15T00:26:06.723Z,26.67
2022-12-15T00:29:45.485Z,23.90
2022-12-15T00:33:29.894Z,24.83
2022-12-15T00:37:09.275Z,22.87
2022-12-15T00:40:30.736Z,20.37
2022-12-15T00:43:53.867Z,22.80
2022-12-15T00:47:15.403Z,19.57
2022-12-15T00:50:54.382Z,19.87
2022-12-15T00:54:33.549Z,18.50
2022-12-15T00:58:13.085Z,17.30
2022-12-15T01:01:53.675Z,16.93
2022-12-15T01:05:32.976Z,19.00
2022-12-15T01:09:11.770Z,18.10
2022-12-15T01:12:50.703Z,17.23
2022-12-15T01:16:30.523Z,16.83
2022-12-15T01:20:10.801Z,16.23
2022-12-15T01:23:33.288Z,17.40
2022-12-15T01:26:56.178Z,17.30
2022-12-15T01:30:21.162Z,16.53
2022-12-15T01:33:43.778Z,17.23
2022-12-15T01:37:06.815Z,17.57
2022-12-15T01:40:46.227Z,18.43
2022-12-15T01:44:23.696Z,17.30
2022-12-15T01:47:45.511Z,17.00
2022-12-15T01:51:12.471Z,18.03
2022-12-15T01:54:40.106Z,16.53
2022-12-15T01:58:05.131Z,15.37
2022-12-15T02:01:27.216Z,17.27
2022-12-15T02:04:50.855Z,16.80
2022-12-15T02:08:13.062Z,16.93
2022-12-15T02:11:49.157Z,17.90
2022-12-15T02:15:20.329Z,17.07
2022-12-15T02:18:52.463Z,17.20
2022-12-15T02:22:27.976Z,17.20
2022-12-15T02:26:11.034Z,16.27
2022-12-15T02:29:58.885Z,17.43
2022-12-15T02:33:27.330Z,15.63
2022-12-15T02:36:52.800Z,16.40
2022-12-15T02:40:14.429Z,16.97
2022-12-15T02:43:39.984Z,17.50
2022-12-15T02:47:28.154Z,17.07
2022-12-15T02:51:06.945Z,16.13
2022-12-15T02:54:47.947Z,16.10
2022-12-15T02:58:16.257Z,16.43
2022-12-15T03:01:42.798Z,16.77
2022-12-15T03:05:05.770Z,17.57
2022-12-15T03:08:28.917Z,16.60
2022-12-15T03:11:50.973Z,16.40
2022-12-15T03:15:12.937Z,16.83
2022-12-15T03:18:34.402Z,17.17
2022-12-15T03:21:56.130Z,16.33
2022-12-15T03:25:19.514Z,16.40
2022-12-15T03:28:41.165Z,17.00
2022-12-15T03:32:03.322Z,17.93
2022-12-15T03:35:25.290Z,17.37
2022-12-15T03:38:46.723Z,16.77
2022-12-15T03:42:10.204Z,17.33
2022-12-15T03:45:32.250Z,16.70
2022-12-15T03:48:54.072Z,16.87
2022-12-15T03:52:15.846Z,16.67
2022-12-15T03:55:37.705Z,16.80
2022-12-15T03:59:00.583Z,17.60
2022-12-15T04:02:22.679Z,17.97
2022-12-15T04:05:44.692Z,18.50
2022-12-15T04:09:06.504Z,16.33
2022-12-15T04:12:28.282Z,17.90
2022-12-15T04:15:51.569Z,17.10
2022-12-15T04:19:30.566Z,17.10
2022-12-15T04:22:52.727Z,17.90
2022-12-15T04:26:32.667Z,19.87
2022-12-15T04:30:11.440Z,20.87
2022-12-15T04:33:52.599Z,19.50
2022-12-15T04:37:33.066Z,25.10
2022-12-15T04:41:12.165Z,24.02
2022-12-15T04:44:51.457Z,25.43
2022-12-15T04:48:31.287Z,22.20
2022-12-15T04:52:11.736Z,20.43
2022-12-15T04:55:53.669Z,19.10
2022-12-15T04:59:32.986Z,17.27
2022-12-15T05:03:17.930Z,18.43
2022-12-15T05:06:57.290Z,23.00
2022-12-15T05:10:37.726Z,21.90
2022-12-15T05:14:16.642Z,18.47
2022-12-15T05:17:55.704Z,17.10
2022-12-15T05:21:34.595Z,17.40
2022-12-15T05:25:13.840Z,17.97
2022-12-15T05:28:54.418Z,16.87
2022-12-15T05:32:16.058Z,17.17
2022-12-15T05:35:37.753Z,17.90
2022-12-15T05:38:59.572Z,17.47
2022-12-15T05:42:21.596Z,18.30
2022-12-15T05:45:44.703Z,18.27
2022-12-15T05:49:07.494Z,16.27
2022-12-15T05:52:29.280Z,19.17
2022-12-15T05:55:50.980Z,18.63
2022-12-15T05:59:13.249Z,19.47
2022-12-15T06:02:36.372Z,17.27
2022-12-15T06:05:58.245Z,18.23
2022-12-15T06:09:20.189Z,18.17
2022-12-15T06:12:42.296Z,18.23
2022-12-15T06:16:06.513Z,19.27
2022-12-15T06:19:29.473Z,19.23
2022-12-15T06:22:51.219Z,20.63
2022-12-15T06:26:16.130Z,19.30
2022-12-15T06:29:37.961Z,19.93
2022-12-15T06:32:59.855Z,19.07
2022-12-15T06:36:24.842Z,23.27
2022-12-15T06:39:46.708Z,20.03
2022-12-15T06:43:09.334Z,19.33
2022-12-15T06:46:32.792Z,20.10
2022-12-15T06:49:55.429Z,20.00
2022-12-15T06:53:20.233Z,19.37
2022-12-15T06:56:42.415Z,20.53
2022-12-15T07:00:06.263Z,22.67
2022-12-15T07:03:28.578Z,22.53
2022-12-15T07:06:51.348Z,23.40
2022-12-15T07:10:14.827Z,21.73
2022-12-15T07:13:38.351Z,22.00
2022-12-15T07:17:00.426Z,21.97
2022-12-15T07:20:27.114Z,22.97
2022-12-15T07:23:55.740Z,23.03
2022-12-15T07:27:19.447Z,23.20
2022-12-15T07:30:41.089Z,22.27
2022-12-15T07:34:04.918Z,22.33
2022-12-15T07:37:26.468Z,22.43
2022-12-15T07:40:49.178Z,22.00
2022-12-15T07:44:12.502Z,24.87
2022-12-15T07:47:34.686Z,21.37
2022-12-15T07:51:07.236Z,23.70
2022-12-15T07:54:29.405Z,24.00
2022-12-15T07:57:51.020Z,24.87
2022-12-15T08:01:15.563Z,22.23
2022-12-15T08:04:37.394Z,22.53
2022-12-15T08:07:59.361Z,23.97
2022-12-15T08:11:24.586Z,22.90
2022-12-15T08:14:46.302Z,24.20
2022-12-15T08:18:13.439Z,23.43
2022-12-15T08:21:35.442Z,22.23
2022-12-15T08:24:56.844Z,23.50
2022-12-15T08:28:19.547Z,23.77
2022-12-15T08:31:41.817Z,24.03
2022-12-15T08:35:19.921Z,23.37
2022-12-15T08:38:48.429Z,23.07
2022-12-15T08:42:10.417Z,22.10
2022-12-15T08:45:32.403Z,24.73
2022-12-15T08:48:54.582Z,24.93
2022-12-15T08:52:17.722Z,23.37
2022-12-15T08:55:40.618Z,24.07
2022-12-15T08:59:03.339Z,24.53
2022-12-15T09:02:25.138Z,23.40
2022-12-15T09:05:46.943Z,23.03
2022-12-15T09:09:14.635Z,23.43
2022-12-15T09:12:36.497Z,24.03
2022-12-15T09:16:13.999Z,25.80
2022-12-15T09:19:36.575Z,22.27
2022-12-15T09:22:58.988Z,22.80
2022-12-15T09:26:24.278Z,20.53
2022-12-15T09:29:46.323Z,22.27
2022-12-15T09:33:08.344Z,22.30
2022-12-15T09:36:32.765Z,24.80
2022-12-15T09:39:54.816Z,22.80
2022-12-15T09:43:42.863Z,20.17
2022-12-15T09:47:17.483Z,21.53
2022-12-15T09:50:42.012Z,21.60
2022-12-15T09:54:04.384Z,20.77
2022-12-15T09:57:41.526Z,20.13
2022-12-15T10:01:14.488Z,20.80
2022-12-15T10:04:44.799Z,21.50
2022-12-15T10:08:07.275Z,21.83
2022-12-15T10:11:50.247Z,21.40
2022-12-15T10:15:24.078Z,21.27
2022-12-15T10:19:01.190Z,21.13
2022-12-15T10:22:26.814Z,21.07
2022-12-15T10:25:51.819Z,21.83
2022-12-15T10:29:37.560Z,21.83
2022-12-15T10:33:03.753Z,20.67
2022-12-15T10:36:27.051Z,20.47
2022-12-15T10:39:51.516Z,20.40
2022-12-15T10:43:16.372Z,20.93
2022-12-15T10:46:37.995Z,20.37
2022-12-15T10:50:24.253Z,19.97
2022-12-15T10:53:51.257Z,19.50
2022-12-15T10:57:18.691Z,21.47
2022-12-15T11:00:41.051Z,20.10
2022-12-15T11:04:02.919Z,19.73
2022-12-15T11:07:26.328Z,20.10
2022-12-15T11:11:11.174Z,20.17
2022-12-15T11:14:43.921Z,19.33
2022-12-15T11:18:12.834Z,21.03
2022-12-15T11:21:40.752Z,20.20
2022-12-15T11:25:13.357Z,21.30
2022-12-15T11:28:43.935Z,19.60
2022-12-15T11:32:07.768Z,18.57
2022-12-15T11:35:43.957Z,19.23
2022-12-15T11:39:14.211Z,19.37
2022-12-15T11:42:47.616Z,19.23
2022-12-15T11:46:23.891Z,19.47
2022-12-15T11:50:17.840Z,20.50
2022-12-15T11:54:11.296Z,19.90
2022-12-15T11:57:53.219Z,18.27
2022-12-15T12:01:34.762Z,18.90
2022-12-15T12:05:15.550Z,19.73
2022-12-15T12:09:01.741Z,19.53
2022-12-15T12:12:30.458Z,19.43
2022-12-15T12:15:58.910Z,18.67
2022-12-15T12:19:26.499Z,18.07
2022-12-15T12:22:56.135Z,20.00
2022-12-15T12:26:24.491Z,19.33
2022-12-15T12:29:50.159Z,19.13
2022-12-15T12:33:21.643Z,21.20
2022-12-15T12:36:48.930Z,19.07
2022-12-15T12:40:20.019Z,18.47
2022-12-15T12:43:45.419Z,18.80
2022-12-15T12:47:20.548Z,18.40
2022-12-15T12:50:42.639Z,18.53
2022-12-15T12:54:40.370Z,18.07
2022-12-15T12:58:02.362Z,22.27
2022-12-15T13:01:28.781Z,19.50
2022-12-15T13:04:52.831Z,17.90
2022-12-15T13:08:34.153Z,19.83
2022-12-15T13:12:15.022Z,18.43
2022-12-15T13:15:45.273Z,17.60
2022-12-15T13:19:09.446Z,18.03
2022-12-15T13:22:34.528Z,19.37
2022-12-15T13:26:12.568Z,18.23
2022-12-15T13:29:37.387Z,18.57
2022-12-15T13:33:18.525Z,18.97
2022-12-15T13:36:58.570Z,19.77
2022-12-15T13:40:36.726Z,18.50
2022-12-15T13:44:01.539Z,18.97
2022-12-15T13:47:27.469Z,19.30
2022-12-15T13:50:57.379Z,20.43
2022-12-15T13:54:24.903Z,20.33
2022-12-15T13:57:56.634Z,20.70
2022-12-15T14:01:32.700Z,20.77
2022-12-15T14:05:15.254Z,20.10
2022-12-15T14:08:37.088Z,20.03
2022-12-15T14:12:02.705Z,19.90
2022-12-15T14:15:29.304Z,19.57
2022-12-15T14:19:05.951Z,23.50
2022-12-15T14:22:30.944Z,19.57
2022-12-15T14:25:58.516Z,18.87
2022-12-15T14:29:20.980Z,19.20
2022-12-15T14:32:45.327Z,19.37
2022-12-15T14:36:11.810Z,19.97
2022-12-15T14:39:40.814Z,20.77
2022-12-15T14:43:02.444Z,18.77
2022-12-15T14:46:28.450Z,19.30
2022-12-15T14:49:51.134Z,20.00
2022-12-15T14:53:16.952Z,19.97
2022-12-15T14:56:40.870Z,19.53
2022-12-15T15:00:26.704Z,20.13
2022-12-15T15:03:57.560Z,20.47
2022-12-15T15:07:20.871Z,20.20
2022-12-15T15:10:44.188Z,19.80
2022-12-15T15:14:12.412Z,20.13
2022-12-15T15:17:38.579Z,19.37
2022-12-15T15:21:03.340Z,20.00
2022-12-15T15:24:30.875Z,20.80
2022-12-15T15:27:52.443Z,20.97
2022-12-15T15:31:32.678Z,21.07
2022-12-15T15:34:58.495Z,20.77
2022-12-15T15:38:27.068Z,21.17
2022-12-15T15:41:48.932Z,19.17
2022-12-15T15:45:13.753Z,18.73
2022-12-15T15:48:40.775Z,19.70
2022-12-15T15:52:02.980Z,19.47
2022-12-15T15:55:28.775Z,20.13
2022-12-15T15:58:50.208Z,22.13
2022-12-15T16:02:14.509Z,23.67
2022-12-15T16:05:38.051Z,22.87
2022-12-15T16:09:00.202Z,22.23
2022-12-15T16:12:27.709Z,21.37
2022-12-15T16:15:50.560Z,21.50
2022-12-15T16:19:13.141Z,20.83
2022-12-15T16:22:36.361Z,21.27
2022-12-15T16:26:00.276Z,21.13
2022-12-15T16:29:22.457Z,21.47
2022-12-15T16:32:44.208Z,21.33
2022-12-15T16:36:11.627Z,20.57
2022-12-15T16:39:36.840Z,21.27
2022-12-15T16:43:01.310Z,21.53
2022-12-15T16:46:23.027Z,22.17
2022-12-15T16:49:45.271Z,22.20
2022-12-15T16:53:11.214Z,22.60
2022-12-15T16:56:34.502Z,24.10
2022-12-15T16:59:56.740Z,21.47
2022-12-15T17:03:23.209Z,23.57
2022-12-15T17:06:45.480Z,25.37
2022-12-15T17:10:08.478Z,28.97
2022-12-15T17:13:41.948Z,28.53
2022-12-15T17:17:13.598Z,30.63
2022-12-15T17:20:35.073Z,29.40
2022-12-15T17:24:00.018Z,28.27
2022-12-15T17:27:27.980Z,27.37
2022-12-15T17:30:51.993Z,26.97
2022-12-15T17:34:27.118Z,27.00
2022-12-15T17:37:48.898Z,26.23
2022-12-15T17:41:35.128Z,24.30
2022-12-15T17:44:55.648Z,21.77
2022-12-15T17:48:19.230Z,20.50
2022-12-15T17:51:42.051Z,21.17
2022-12-15T17:55:05.630Z,21.77
2022-12-15T17:58:28.163Z,20.30
2022-12-15T18:01:49.924Z,20.50
2022-12-15T18:05:16.066Z,19.80
2022-12-15T18:08:38.060Z,20.73
2022-12-15T18:11:59.666Z,22.80
2022-12-15T18:15:23.385Z,21.70
2022-12-15T18:18:46.628Z,20.20
2022-12-15T18:22:15.226Z,19.97
2022-12-15T18:25:36.814Z,21.37
2022-12-15T18:28:58.682Z,19.67
2022-12-15T18:32:23.889Z,19.37
2022-12-15T18:35:46.865Z,17.97
2022-12-15T18:39:18.202Z,20.10
2022-12-15T18:42:40.507Z,18.80
2022-12-15T18:46:02.617Z,20.03
2022-12-15T18:49:24.501Z,19.83
2022-12-15T18:52:46.567Z,20.30
2022-12-15T18:56:09.952Z,22.40
2022-12-15T18:59:31.687Z,18.87
2022-12-15T19:02:55.131Z,20.43
2022-12-15T19:06:26.007Z,20.20
2022-12-15T19:09:47.971Z,20.27
2022-12-15T19:13:15.118Z,20.00
2022-12-15T19:16:50.543Z,21.73
2022-12-15T19:20:35.942Z,19.93
2022-12-15T19:23:57.992Z,21.83
2022-12-15T19:27:23.248Z,22.10
2022-12-15T19:30:47.403Z,20.80
2022-12-15T19:34:09.365Z,21.07
2022-12-15T19:37:32.061Z,21.20
2022-12-15T19:40:55.408Z,24.30
2022-12-15T19:44:17.447Z,24.63
2022-12-15T19:47:40.550Z,25.10
2022-12-15T19:51:02.477Z,24.73
2022-12-15T19:54:25.058Z,24.23
2022-12-15T19:57:46.600Z,23.23
2022-12-15T20:01:12.245Z,21.10
2022-12-15T20:04:35.778Z,20.57
2022-12-15T20:07:57.748Z,22.10
2022-12-15T20:11:21.657Z,21.90
2022-12-15T20:14:43.398Z,21.03
2022-12-15T20:18:05.251Z,21.27
2022-12-15T20:21:32.453Z,22.23
2022-12-15T20:24:54.100Z,22.93
2022-12-15T20:28:21.807Z,22.77
2022-12-15T20:31:43.576Z,23.63
2022-12-15T20:35:06.000Z,24.43
2022-12-15T20:38:34.231Z,23.47
2022-12-15T20:41:57.014Z,24.07
2022-12-15T20:45:20.784Z,24.07
2022-12-15T20:48:43.112Z,22.50
2022-12-15T20:52:05.110Z,22.97
2022-12-15T20:55:28.153Z,20.17
2022-12-15T20:58:50.703Z,20.30
2022-12-15T21:02:19.502Z,20.87
2022-12-15T21:05:41.431Z,23.07
2022-12-15T21:09:03.222Z,22.40
2022-12-15T21:12:28.610Z,22.30
2022-12-15T21:15:50.250Z,24.43
2022-12-15T21:19:21.730Z,24.90
2022-12-15T21:22:44.390Z,25.10
2022-12-15T21:26:06.588Z,24.37
2022-12-15T21:29:30.781Z,24.53
2022-12-15T21:32:52.555Z,25.60
2022-12-15T21:36:15.208Z,25.87
2022-12-15T21:39:40.362Z,26.57
2022-12-15T21:43:05.872Z,26.90
2022-12-15T21:46:30.046Z,27.67
2022-12-15T21:49:52.964Z,27.23
2022-12-15T21:53:18.488Z,26.37
2022-12-15T21:56:40.810Z,25.50
2022-12-15T22:00:02.765Z,24.83
2022-12-15T22:03:37.190Z,24.07
2022-12-15T22:06:58.702Z,22.67
2022-12-15T22:10:21.142Z,22.27
2022-12-15T22:13:43.545Z,20.20
2022-12-15T22:17:17.195Z,20.37
2022-12-15T22:20:42.472Z,20.13
2022-12-15T22:24:05.404Z,19.20
2022-12-15T22:27:27.821Z,20.87
2022-12-15T22:30:50.434Z,19.60
2022-12-15T22:34:18.209Z,19.40
2022-12-15T22:37:41.561Z,19.03
2022-12-15T22:41:04.468Z,19.13
2022-12-15T22:44:28.370Z,18.43
2022-12-15T22:47:51.183Z,19.00
2022-12-15T22:51:16.513Z,20.07
2022-12-15T22:54:46.327Z,19.60
2022-12-15T22:58:11.834Z,21.10
2022-12-15T23:01:33.499Z,23.40
2022-12-15T23:04:55.237Z,20.57
2022-12-15T23:08:17.122Z,20.03
2022-12-15T23:11:41.435Z,18.90
2022-12-15T23:15:32.014Z,20.00
2022-12-15T23:18:55.151Z,18.30
2022-12-15T23:22:16.648Z,19.00
2022-12-15T23:25:38.669Z,19.13
2022-12-15T23:29:01.425Z,19.63
2022-12-15T23:32:23.390Z,19.07
2022-12-15T23:35:45.698Z,19.23
2022-12-15T23:39:06.842Z,18.67
2022-12-15T23:42:28.611Z,19.90
2022-12-15T23:45:59.082Z,20.07
2022-12-15T23:49:20.803Z,20.70
2022-12-15T23:52:42.863Z,20.23
2022-12-15T23:56:09.592Z,20.00
2022-12-15T23:59:31.410Z,18.70
